King City, Canada
Current Conditions -  °F | °C
As of 11:00 PM on Thursday 20 Nov 2014 (Local Time) from CYKZ Reporting Station
Clear Clear  
Wind Chill:   Ceiling: Unl
Heat Index: 18°   Visibility: 15mi
Dew Point: 12°   Wind: 9mph
Humidity: 79%   Direction: 250°WSW
Pressure: 29.93"   Gusts: NA
Location:  43.93°N, 79.53°W
Report Text: CYKZ 210400Z 25008KT 15SM SKC M08/M11 A2993 RMK SLP147
Loading
Personal Weather Stations






























Interactive Weather Map New forecast layout! Learn more

10-Day Weather Forecast

Advertisements
Track Severe Weather on mobile